createdAt,value
2018-06-23T00:00:53.005Z,1022.79
2018-06-23T00:01:52.998Z,1022.74
2018-06-23T00:02:52.993Z,1022.74
2018-06-23T00:03:52.985Z,1022.77
2018-06-23T00:04:52.982Z,1022.76
2018-06-23T00:05:52.979Z,1022.80
2018-06-23T00:06:52.979Z,1022.75
2018-06-23T00:07:52.975Z,1022.75
2018-06-23T00:08:52.969Z,1022.73
2018-06-23T00:09:52.966Z,1022.66
2018-06-23T00:10:52.958Z,1022.72
2018-06-23T00:11:52.952Z,1022.72
2018-06-23T00:12:52.955Z,1022.72
2018-06-23T00:13:52.950Z,1022.73
2018-06-23T00:14:52.945Z,1022.80
2018-06-23T00:15:52.937Z,1022.75
2018-06-23T00:16:52.933Z,1022.73
2018-06-23T00:17:52.929Z,1022.78
2018-06-23T00:18:52.931Z,1022.77
2018-06-23T00:19:52.926Z,1022.77
2018-06-23T00:20:52.969Z,1022.80
2018-06-23T00:21:52.917Z,1022.81
2018-06-23T00:22:52.914Z,1022.79
2018-06-23T00:23:52.903Z,1022.74
2018-06-23T00:24:52.900Z,1022.77
2018-06-23T00:25:52.895Z,1022.71
2018-06-23T00:26:52.896Z,1022.70
2018-06-23T00:27:52.891Z,1022.67
2018-06-23T00:28:52.882Z,1022.70
2018-06-23T00:29:52.877Z,1022.68
2018-06-23T00:30:52.878Z,1022.71
2018-06-23T00:31:52.872Z,1022.73
2018-06-23T00:32:52.870Z,1022.73
2018-06-23T00:33:52.865Z,1022.74
2018-06-23T00:34:52.856Z,1022.72
2018-06-23T00:35:52.851Z,1022.73
2018-06-23T00:36:52.849Z,1022.72
2018-06-23T00:37:52.843Z,1022.77
2018-06-23T00:38:52.843Z,1022.76
2018-06-23T00:39:52.838Z,1022.76
2018-06-23T00:40:52.837Z,1022.76
2018-06-23T00:41:52.830Z,1022.77
2018-06-23T00:42:52.821Z,1022.79
2018-06-23T00:43:52.814Z,1022.78
2018-06-23T00:44:52.816Z,1022.74
2018-06-23T00:45:52.816Z,1022.76
2018-06-23T00:46:52.801Z,1022.73
2018-06-23T00:47:52.797Z,1022.72
2018-06-23T00:48:52.791Z,1022.73
2018-06-23T00:49:52.787Z,1022.68
2018-06-23T00:50:52.788Z,1022.73
2018-06-23T00:51:52.781Z,1022.67
2018-06-23T00:52:52.777Z,1022.69
2018-06-23T00:53:52.772Z,1022.72
2018-06-23T00:54:52.763Z,1022.74
2018-06-23T00:55:52.758Z,1022.71
2018-06-23T00:56:52.753Z,1022.68
2018-06-23T00:57:52.749Z,1022.70
2018-06-23T00:58:52.750Z,1022.73
2018-06-23T00:59:52.744Z,1022.68
2018-06-23T01:00:52.735Z,1022.71
2018-06-23T01:01:52.729Z,1022.67
2018-06-23T01:02:52.729Z,1022.68
2018-06-23T01:03:52.724Z,1022.66
2018-06-23T01:04:52.719Z,1022.67
2018-06-23T01:05:52.713Z,1022.72
2018-06-23T01:06:52.705Z,1022.71
2018-06-23T01:07:52.699Z,1022.72
2018-06-23T01:08:52.695Z,1022.68
2018-06-23T01:09:52.692Z,1022.73
2018-06-23T01:10:52.689Z,1022.70
2018-06-23T01:11:52.683Z,1022.74
2018-06-23T01:12:52.680Z,1022.73
2018-06-23T01:13:52.675Z,1022.69
2018-06-23T01:14:52.666Z,1022.75
2018-06-23T01:15:52.659Z,1022.74
2018-06-23T01:16:52.662Z,1022.73
2018-06-23T01:17:52.654Z,1022.74
2018-06-23T01:18:52.644Z,1022.75
2018-06-23T01:19:52.639Z,1022.75
2018-06-23T01:20:52.635Z,1022.75
2018-06-23T01:21:52.629Z,1022.71
2018-06-23T01:22:52.629Z,1022.77
2018-06-23T01:23:52.622Z,1022.70
2018-06-23T01:24:52.618Z,1022.70
2018-06-23T01:25:52.613Z,1022.70
2018-06-23T01:26:52.603Z,1022.76
2018-06-23T01:27:52.598Z,1022.72
2018-06-23T01:28:52.594Z,1022.78
2018-06-23T01:29:52.588Z,1022.74
2018-06-23T01:30:52.589Z,1022.77
2018-06-23T01:31:52.582Z,1022.71
2018-06-23T01:32:52.573Z,1022.75
2018-06-23T01:33:52.569Z,1022.77
2018-06-23T01:34:52.568Z,1022.71
2018-06-23T01:35:52.561Z,1022.70
2018-06-23T01:36:52.556Z,1022.70
2018-06-23T01:37:52.550Z,1022.69
2018-06-23T01:38:52.541Z,1022.69
2018-06-23T01:39:52.536Z,1022.70
2018-06-23T01:40:52.531Z,1022.69
2018-06-23T01:41:52.527Z,1022.68
2018-06-23T01:42:52.528Z,1022.67
2018-06-23T01:43:52.522Z,1022.74
2018-06-23T01:44:52.515Z,1022.63
2018-06-23T01:45:52.509Z,1022.68
2018-06-23T01:46:52.499Z,1022.68
2018-06-23T01:47:52.494Z,1022.69
2018-06-23T01:48:52.494Z,1022.66
2018-06-23T01:49:52.489Z,1022.70
2018-06-23T01:50:52.485Z,1022.66
2018-06-23T01:51:52.473Z,1022.67
2018-06-23T01:52:52.468Z,1022.66
2018-06-23T01:53:52.462Z,1022.64
2018-06-23T01:54:52.505Z,1022.66
2018-06-23T01:55:52.457Z,1022.67
2018-06-23T01:56:52.452Z,1022.69
2018-06-23T01:57:52.446Z,1022.62
2018-06-23T01:58:52.436Z,1022.65
2018-06-23T01:59:52.430Z,1022.63
2018-06-23T02:00:52.424Z,1022.64
2018-06-23T02:01:52.419Z,1022.58
2018-06-23T02:02:52.419Z,1022.63
2018-06-23T02:03:52.413Z,1022.64
2018-06-23T02:04:52.403Z,1022.68
2018-06-23T02:05:52.398Z,1022.65
2018-06-23T02:06:52.398Z,1022.62
2018-06-23T02:07:52.390Z,1022.65
2018-06-23T02:08:52.388Z,1022.65
2018-06-23T02:09:52.381Z,1022.66
2018-06-23T02:10:52.371Z,1022.63
2018-06-23T02:11:52.364Z,1022.56
2018-06-23T02:12:52.365Z,1022.57
2018-06-23T02:13:52.357Z,1022.57
2018-06-23T02:14:52.354Z,1022.59
2018-06-23T02:15:52.347Z,1022.57
2018-06-23T02:16:52.341Z,1022.56
2018-06-23T02:17:52.338Z,1022.60
2018-06-23T02:18:52.327Z,1022.58
2018-06-23T02:19:52.320Z,1022.57
2018-06-23T02:20:52.319Z,1022.59
2018-06-23T02:21:52.314Z,1022.64
2018-06-23T02:22:52.304Z,1022.61
2018-06-23T02:23:52.298Z,1022.57
2018-06-23T02:24:52.296Z,1022.57
2018-06-23T02:25:52.289Z,1022.62
2018-06-23T02:26:52.288Z,1022.53
2018-06-23T02:27:52.282Z,1022.57
2018-06-23T02:28:52.277Z,1022.56
2018-06-23T02:29:52.271Z,1022.56
2018-06-23T02:30:52.260Z,1022.52
2018-06-23T02:31:52.254Z,1022.57
2018-06-23T02:32:52.251Z,1022.57
2018-06-23T02:33:52.243Z,1022.52
2018-06-23T02:34:52.242Z,1022.59
2018-06-23T02:35:52.237Z,1022.59
2018-06-23T02:36:52.226Z,1022.59
2018-06-23T02:37:52.224Z,1022.55
2018-06-23T02:38:52.220Z,1022.55
2018-06-23T02:39:52.215Z,1022.56
2018-06-23T02:40:52.209Z,1022.58
2018-06-23T02:41:52.204Z,1022.60
2018-06-23T02:42:52.193Z,1022.64
2018-06-23T02:43:52.188Z,1022.61
2018-06-23T02:44:52.187Z,1022.62
2018-06-23T02:45:52.181Z,1022.69
2018-06-23T02:46:52.174Z,1022.66
2018-06-23T02:47:52.165Z,1022.64
2018-06-23T02:48:52.159Z,1022.57
2018-06-23T02:49:52.154Z,1022.61
2018-06-23T02:50:52.154Z,1022.61
2018-06-23T02:51:52.152Z,1022.57
2018-06-23T02:52:52.137Z,1022.64
2018-06-23T02:53:52.132Z,1022.65
2018-06-23T02:54:52.132Z,1022.67
2018-06-23T02:55:52.127Z,1022.62
2018-06-23T02:56:52.119Z,1022.62
2018-06-23T02:57:52.115Z,1022.66
2018-06-23T02:58:52.105Z,1022.65
2018-06-23T02:59:52.099Z,1022.68
2018-06-23T03:00:52.093Z,1022.63
2018-06-23T03:01:52.088Z,1022.64
2018-06-23T03:02:52.087Z,1022.63
2018-06-23T03:03:52.080Z,1022.65
2018-06-23T03:04:52.076Z,1022.64
2018-06-23T03:05:52.070Z,1022.63
2018-06-23T03:06:52.065Z,1022.60
2018-06-23T03:07:52.055Z,1022.65
2018-06-23T03:08:52.054Z,1022.65
2018-06-23T03:09:52.048Z,1022.62
2018-06-23T03:10:52.040Z,1022.62
2018-06-23T03:11:52.032Z,1022.63
2018-06-23T03:12:52.027Z,1022.69
2018-06-23T03:13:52.020Z,1022.71
2018-06-23T03:14:52.020Z,1022.66
2018-06-23T03:15:52.016Z,1022.65
2018-06-23T03:16:52.008Z,1022.75
2018-06-23T03:17:52.002Z,1022.72
2018-06-23T03:18:51.993Z,1022.70
2018-06-23T03:19:51.986Z,1022.70
2018-06-23T03:20:51.981Z,1022.71
2018-06-23T03:21:51.975Z,1022.74
2018-06-23T03:22:51.974Z,1022.71
2018-06-23T03:23:51.968Z,1022.73
2018-06-23T03:24:51.957Z,1022.78
2018-06-23T03:25:51.952Z,1022.74
2018-06-23T03:26:51.952Z,1022.74
2018-06-23T03:27:51.947Z,1022.74
2018-06-23T03:28:51.939Z,1022.74
2018-06-23T03:29:51.933Z,1022.79
2018-06-23T03:30:51.924Z,1022.76
2018-06-23T03:31:51.917Z,1022.75
2018-06-23T03:32:51.912Z,1022.84
2018-06-23T03:33:51.907Z,1022.85
2018-06-23T03:34:51.905Z,1022.83
2018-06-23T03:35:51.903Z,1022.89
2018-06-23T03:36:51.895Z,1022.85
2018-06-23T03:37:51.889Z,1022.87
2018-06-23T03:38:51.879Z,1022.84
2018-06-23T03:39:51.873Z,1022.87
2018-06-23T03:40:51.872Z,1022.82
2018-06-23T03:41:51.866Z,1022.83
2018-06-23T03:42:51.855Z,1022.85
2018-06-23T03:43:51.941Z,1022.83
2018-06-23T03:44:51.843Z,1022.87
2018-06-23T03:45:51.837Z,1022.89
2018-06-23T03:46:51.836Z,1022.88
2018-06-23T03:47:51.830Z,1022.89
2018-06-23T03:48:51.829Z,1022.86
2018-06-23T03:49:51.821Z,1022.80
2018-06-23T03:50:51.810Z,1022.82
2018-06-23T03:51:51.804Z,1022.81
2018-06-23T03:52:51.798Z,1022.83
2018-06-23T03:53:51.792Z,1022.87
2018-06-23T03:54:51.792Z,1022.80
2018-06-23T03:55:51.785Z,1022.81
2018-06-23T03:56:51.777Z,1022.76
2018-06-23T03:57:51.770Z,1022.81
2018-06-23T03:58:51.768Z,1022.80
2018-06-23T03:59:51.763Z,1022.82
2018-06-23T04:00:51.757Z,1022.80
2018-06-23T04:01:51.751Z,1022.79
2018-06-23T04:02:51.742Z,1022.83
2018-06-23T04:03:51.735Z,1022.79
2018-06-23T04:04:51.730Z,1022.85
2018-06-23T04:05:51.724Z,1022.83
2018-06-23T04:06:51.724Z,1022.84
2018-06-23T04:07:51.717Z,1022.79
2018-06-23T04:08:51.711Z,1022.83
2018-06-23T04:09:51.706Z,1022.84
2018-06-23T04:10:51.696Z,1022.86
2018-06-23T04:11:51.693Z,1022.88
2018-06-23T04:12:51.689Z,1022.89
2018-06-23T04:13:51.683Z,1022.85
2018-06-23T04:14:51.673Z,1022.84
2018-06-23T04:15:51.669Z,1022.84
2018-06-23T04:16:51.720Z,1022.83
2018-06-23T04:17:51.657Z,1022.86
2018-06-23T04:18:51.656Z,1022.81
2018-06-23T04:19:51.649Z,1022.83
2018-06-23T04:20:51.643Z,1022.83
2018-06-23T04:21:51.638Z,1022.80
2018-06-23T04:22:51.628Z,1022.79
2018-06-23T04:23:51.621Z,1022.75
2018-06-23T04:24:51.616Z,1022.76
2018-06-23T04:25:51.611Z,1022.81
2018-06-23T04:26:51.610Z,1022.78
2018-06-23T04:27:51.606Z,1022.87
2018-06-23T04:28:51.594Z,1022.81
2018-06-23T04:29:51.590Z,1022.82
2018-06-23T04:30:51.589Z,1022.79
2018-06-23T04:31:51.582Z,1022.83
2018-06-23T04:32:51.577Z,1022.90
2018-06-23T04:33:51.573Z,1022.89
2018-06-23T04:34:51.564Z,1022.87
2018-06-23T04:35:51.557Z,1022.90
2018-06-23T04:36:51.552Z,1022.96
2018-06-23T04:37:51.549Z,1022.94
2018-06-23T04:38:51.549Z,1022.91
2018-06-23T04:39:51.542Z,1022.93
2018-06-23T04:40:51.537Z,1022.97
2018-06-23T04:41:51.532Z,1023.05
2018-06-23T04:42:51.522Z,1023.05
2018-06-23T04:43:51.517Z,1023.02
2018-06-23T04:44:51.516Z,1023.01
2018-06-23T04:45:51.513Z,1022.97
2018-06-23T04:46:51.503Z,1022.98
2018-06-23T04:47:51.497Z,1022.98
2018-06-23T04:48:51.493Z,1022.97
2018-06-23T04:49:51.488Z,1022.98
2018-06-23T04:50:51.490Z,1022.93
2018-06-23T04:51:51.483Z,1022.96
2018-06-23T04:52:51.478Z,1022.93
2018-06-23T04:53:51.481Z,1022.92
2018-06-23T04:54:51.466Z,1022.92
2018-06-23T04:55:51.460Z,1022.93
2018-06-23T04:56:51.456Z,1022.93
2018-06-23T04:57:51.452Z,1022.93
2018-06-23T04:58:51.453Z,1022.90
2018-06-23T04:59:51.448Z,1022.89
2018-06-23T05:00:51.438Z,1022.86
2018-06-23T05:01:51.434Z,1022.90
2018-06-23T05:02:51.435Z,1022.94
2018-06-23T05:03:51.430Z,1022.92
2018-06-23T05:04:51.426Z,1022.91
2018-06-23T05:05:51.421Z,1022.90
2018-06-23T05:06:51.413Z,1022.89
2018-06-23T05:07:51.407Z,1022.94
2018-06-23T05:08:51.404Z,1022.96
2018-06-23T05:09:51.399Z,1022.89
2018-06-23T05:10:51.401Z,1022.93
2018-06-23T05:11:51.396Z,1022.89
2018-06-23T05:12:51.392Z,1022.94
2018-06-23T05:13:51.387Z,1022.92
2018-06-23T05:14:51.381Z,1022.91
2018-06-23T05:15:51.375Z,1022.88
2018-06-23T05:16:51.377Z,1022.85
2018-06-23T05:17:51.371Z,1022.92
2018-06-23T05:18:51.365Z,1022.90
2018-06-23T05:19:51.361Z,1022.87
2018-06-23T05:20:51.356Z,1022.84
2018-06-23T05:21:51.351Z,1022.83
2018-06-23T05:22:51.355Z,1022.84
2018-06-23T05:23:51.347Z,1022.83
2018-06-23T05:24:51.344Z,1022.90
2018-06-23T05:25:51.352Z,1022.93
2018-06-23T05:26:51.332Z,1022.89
2018-06-23T05:27:51.331Z,1022.90
2018-06-23T05:28:51.326Z,1022.92
2018-06-23T05:29:51.322Z,1022.92
2018-06-23T05:30:51.324Z,1022.91
2018-06-23T05:31:51.330Z,1022.92
2018-06-23T05:32:51.311Z,1022.92
2018-06-23T05:33:51.308Z,1022.93
2018-06-23T05:34:51.310Z,1022.91
2018-06-23T05:35:51.305Z,1022.93
2018-06-23T05:36:51.300Z,1022.88
2018-06-23T05:37:51.364Z,1022.89
2018-06-23T05:38:51.290Z,1022.87
2018-06-23T05:39:51.286Z,1022.90
2018-06-23T05:40:51.282Z,1022.86
2018-06-23T05:41:51.279Z,1022.89
2018-06-23T05:42:51.280Z,1022.93
2018-06-23T05:43:51.275Z,1022.87
2018-06-23T05:44:51.307Z,1022.91
2018-06-23T05:45:51.269Z,1022.91
2018-06-23T05:46:51.261Z,1022.92
2018-06-23T05:47:51.256Z,1022.93
2018-06-23T05:48:51.258Z,1022.92
2018-06-23T05:49:51.254Z,1022.99
2018-06-23T05:50:51.247Z,1022.92
2018-06-23T05:51:51.264Z,1022.98
2018-06-23T05:52:51.238Z,1022.94
2018-06-23T05:53:51.235Z,1022.93
2018-06-23T05:54:51.236Z,1022.93
2018-06-23T05:55:51.232Z,1022.92
2018-06-23T05:56:51.228Z,1022.91
2018-06-23T05:57:51.226Z,1022.85
2018-06-23T05:58:51.221Z,1022.89
2018-06-23T05:59:51.212Z,1022.86
2018-06-23T06:00:51.208Z,1022.83
2018-06-23T06:01:51.205Z,1022.81
2018-06-23T06:02:51.205Z,1022.82
2018-06-23T06:03:51.204Z,1022.88
2018-06-23T06:04:51.196Z,1022.90
2018-06-23T06:05:51.189Z,1022.88
2018-06-23T06:06:51.191Z,1022.90
2018-06-23T06:07:51.186Z,1022.85
2018-06-23T06:08:51.183Z,1022.91
2018-06-23T06:09:51.180Z,1022.80
2018-06-23T06:10:51.173Z,1022.87
2018-06-23T06:11:51.167Z,1022.88
2018-06-23T06:12:51.167Z,1022.85
2018-06-23T06:13:51.165Z,1022.89
2018-06-23T06:14:51.182Z,1022.95
2018-06-23T06:15:51.158Z,1022.96
2018-06-23T06:16:51.154Z,1022.89
2018-06-23T06:17:51.150Z,1022.95
2018-06-23T06:18:51.144Z,1022.96
2018-06-23T06:19:51.136Z,1022.94
2018-06-23T06:20:51.144Z,1022.94
2018-06-23T06:21:51.136Z,1022.97
2018-06-23T06:22:51.128Z,1022.98
2018-06-23T06:23:51.150Z,1022.98
2018-06-23T06:24:51.120Z,1023.00
2018-06-23T06:25:51.117Z,1023.02
2018-06-23T06:26:51.120Z,1022.97
2018-06-23T06:27:51.115Z,1023.04
2018-06-23T06:28:51.111Z,1023.02
2018-06-23T06:29:51.109Z,1023.09
2018-06-23T06:30:51.100Z,1022.97
2018-06-23T06:31:51.096Z,1022.96
2018-06-23T06:32:51.092Z,1023.00
2018-06-23T06:33:51.090Z,1023.05
2018-06-23T06:34:51.090Z,1023.09
2018-06-23T06:35:51.086Z,1023.10
2018-06-23T06:36:51.079Z,1023.05
2018-06-23T06:37:51.074Z,1023.03
2018-06-23T06:38:51.076Z,1022.99
2018-06-23T06:39:51.072Z,1022.97
2018-06-23T06:40:51.069Z,1022.98
2018-06-23T06:41:51.066Z,1022.95
2018-06-23T06:42:51.057Z,1022.99
2018-06-23T06:43:51.053Z,1023.01
2018-06-23T06:44:51.059Z,1023.00
2018-06-23T06:45:51.046Z,1023.00
2018-06-23T06:46:51.049Z,1023.07
2018-06-23T06:47:51.043Z,1023.05
2018-06-23T06:48:51.040Z,1023.05
2018-06-23T06:49:51.037Z,1023.06
2018-06-23T06:50:51.042Z,1023.05
2018-06-23T06:51:51.023Z,1023.04
2018-06-23T06:52:51.024Z,1023.06
2018-06-23T06:53:51.022Z,1023.06
2018-06-23T06:54:51.013Z,1023.12
2018-06-23T06:55:51.009Z,1023.16
2018-06-23T06:56:51.010Z,1023.14
2018-06-23T06:57:51.002Z,1023.17
2018-06-23T06:58:51.004Z,1023.16
2018-06-23T06:59:51.000Z,1023.17
2018-06-23T07:00:50.996Z,1023.16
2018-06-23T07:01:50.997Z,1023.18
2018-06-23T07:02:50.984Z,1023.36
2018-06-23T07:03:50.980Z,1023.33
2018-06-23T07:04:50.976Z,1023.17
2018-06-23T07:05:50.973Z,1023.33
2018-06-23T07:06:50.975Z,1023.22
2018-06-23T07:07:50.972Z,1023.30
2018-06-23T07:08:50.991Z,1023.33
2018-06-23T07:09:50.963Z,1023.36
2018-06-23T07:10:50.966Z,1023.45
2018-06-23T07:11:50.964Z,1023.44
2018-06-23T07:12:50.962Z,1023.54
2018-06-23T07:13:50.960Z,1023.58
2018-06-23T07:14:50.954Z,1023.65
2018-06-23T07:15:50.953Z,1023.66
2018-06-23T07:16:50.951Z,1023.73
2018-06-23T07:17:50.952Z,1023.62
2018-06-23T07:18:50.957Z,1023.80
2018-06-23T07:19:50.954Z,1023.63
2018-06-23T07:20:50.956Z,1023.63
2018-06-23T07:21:50.956Z,1023.55
2018-06-23T07:22:50.952Z,1023.48
2018-06-23T07:23:51.125Z,1023.43
2018-06-23T07:24:50.959Z,1023.47
2018-06-23T07:25:50.962Z,1023.42
2018-06-23T07:26:50.978Z,1023.50
2018-06-23T07:27:50.961Z,1023.48
2018-06-23T07:28:50.964Z,1023.50
2018-06-23T07:29:50.967Z,1023.47
2018-06-23T07:30:51.062Z,1023.40
2018-06-23T07:31:50.976Z,1023.33
2018-06-23T07:32:50.978Z,1023.30
2018-06-23T07:33:50.982Z,1023.26
2018-06-23T07:34:51.205Z,1023.29
2018-06-23T07:35:50.980Z,1023.32
2018-06-23T07:36:50.981Z,1023.22
2018-06-23T07:37:50.986Z,1023.33
2018-06-23T07:38:50.990Z,1023.28
2018-06-23T07:39:50.992Z,1023.22
2018-06-23T07:40:50.990Z,1023.35
2018-06-23T07:41:50.991Z,1023.30
2018-06-23T07:42:50.998Z,1023.31
2018-06-23T07:43:50.998Z,1023.36
2018-06-23T07:44:51.000Z,1023.40
2018-06-23T07:45:51.002Z,1023.45
2018-06-23T07:46:50.998Z,1023.44
2018-06-23T07:47:50.998Z,1023.38
2018-06-23T07:48:51.001Z,1023.33
2018-06-23T07:49:51.002Z,1023.32
2018-06-23T07:50:51.008Z,1023.37
2018-06-23T07:51:51.009Z,1023.46
2018-06-23T07:52:51.011Z,1023.51
2018-06-23T07:53:51.013Z,1023.38
2018-06-23T07:54:51.010Z,1023.39
2018-06-23T07:55:51.014Z,1023.44
2018-06-23T07:56:51.019Z,1023.58
2018-06-23T07:57:51.020Z,1023.60
2018-06-23T07:58:51.019Z,1023.54
2018-06-23T07:59:51.022Z,1023.40
2018-06-23T08:00:51.023Z,1023.42
2018-06-23T08:01:51.026Z,1023.20
2018-06-23T08:02:51.033Z,1023.12
2018-06-23T08:03:51.035Z,1023.09
2018-06-23T08:04:51.039Z,1023.06
2018-06-23T08:05:51.041Z,1023.07
2018-06-23T08:06:51.040Z,1023.23
2018-06-23T08:07:51.042Z,1023.20
2018-06-23T08:08:51.045Z,1023.30
2018-06-23T08:09:51.049Z,1023.35
2018-06-23T08:10:51.057Z,1023.45
2018-06-23T08:11:51.275Z,1023.70
2018-06-23T08:12:51.057Z,1024.01
2018-06-23T08:13:51.061Z,1024.18
2018-06-23T08:14:51.070Z,1024.05
2018-06-23T08:15:51.073Z,1023.47
2018-06-23T08:16:51.083Z,1023.27
2018-06-23T08:17:51.081Z,1023.12
2018-06-23T08:18:51.082Z,1023.09
2018-06-23T08:19:51.086Z,1023.05
2018-06-23T08:20:51.092Z,1023.00
2018-06-23T08:21:51.098Z,1023.01
2018-06-23T08:22:51.108Z,1022.96
2018-06-23T08:23:51.119Z,1022.97
2018-06-23T08:24:51.135Z,1022.95
2018-06-23T08:25:51.124Z,1022.96
2018-06-23T08:26:51.124Z,1022.88
2018-06-23T08:27:51.128Z,1022.92
2018-06-23T08:28:51.138Z,1022.93
2018-06-23T08:29:51.145Z,1022.96
2018-06-23T08:30:51.143Z,1022.93
2018-06-23T08:31:51.173Z,1022.99
2018-06-23T08:32:51.151Z,1022.99
2018-06-23T08:33:51.153Z,1022.97
2018-06-23T08:34:51.164Z,1022.97
2018-06-23T08:35:51.169Z,1022.97
2018-06-23T08:36:51.168Z,1022.92
2018-06-23T08:37:51.180Z,1022.99
2018-06-23T08:38:51.171Z,1022.99
2018-06-23T08:39:51.186Z,1022.99
2018-06-23T08:40:51.174Z,1023.13
2018-06-23T08:41:51.176Z,1023.12
2018-06-23T08:42:51.184Z,1023.10
2018-06-23T08:43:51.184Z,1023.08
2018-06-23T08:44:51.181Z,1023.04
2018-06-23T08:45:51.184Z,1023.18
2018-06-23T08:46:51.193Z,1023.09
2018-06-23T08:47:51.191Z,1024.29
2018-06-23T08:48:51.194Z,1025.77
2018-06-23T08:49:51.194Z,1023.38
2018-06-23T08:50:51.192Z,1023.15
2018-06-23T08:51:51.194Z,1023.09
2018-06-23T08:52:51.196Z,1023.05
2018-06-23T08:53:51.198Z,1023.02
2018-06-23T08:54:51.208Z,1023.00
2018-06-23T08:55:51.207Z,1022.95
2018-06-23T08:56:51.223Z,1022.88
2018-06-23T08:57:51.213Z,1022.84
2018-06-23T08:58:51.212Z,1022.82
2018-06-23T08:59:51.213Z,1022.80
2018-06-23T09:00:51.222Z,1022.80
2018-06-23T09:01:51.275Z,1022.85
2018-06-23T09:02:51.300Z,1022.82
2018-06-23T09:03:51.223Z,1022.79
2018-06-23T09:04:51.224Z,1022.82
2018-06-23T09:05:51.227Z,1022.81
2018-06-23T09:06:51.236Z,1022.83
2018-06-23T09:07:51.235Z,1022.86
2018-06-23T09:08:51.237Z,1022.86
2018-06-23T09:09:51.240Z,1022.83
2018-06-23T09:10:51.235Z,1022.83
2018-06-23T09:11:51.238Z,1022.83
2018-06-23T09:12:51.237Z,1022.83
2018-06-23T09:13:51.239Z,1022.82
2018-06-23T09:14:51.245Z,1022.79
2018-06-23T09:15:51.243Z,1022.80
2018-06-23T09:16:51.256Z,1022.84
2018-06-23T09:17:51.241Z,1022.95
2018-06-23T09:18:51.247Z,1024.75
2018-06-23T09:19:51.247Z,1023.20
2018-06-23T09:20:51.248Z,1022.97
2018-06-23T09:21:51.249Z,1023.01
2018-06-23T09:22:51.244Z,1022.90
2018-06-23T09:23:51.245Z,1022.97
2018-06-23T09:24:51.251Z,1022.94
2018-06-23T09:25:51.296Z,1022.91
2018-06-23T09:26:51.254Z,1022.93
2018-06-23T09:27:51.255Z,1022.91
2018-06-23T09:28:51.255Z,1022.93
2018-06-23T09:29:51.257Z,1022.93
2018-06-23T09:30:51.255Z,1022.88
2018-06-23T09:31:51.253Z,1022.87
2018-06-23T09:32:51.259Z,1022.89
2018-06-23T09:33:51.261Z,1022.89
2018-06-23T09:34:51.258Z,1022.85
2018-06-23T09:35:51.258Z,1022.85
2018-06-23T09:36:51.260Z,1022.81
2018-06-23T09:37:51.261Z,1022.77
2018-06-23T09:38:51.268Z,1022.78
2018-06-23T09:39:51.273Z,1022.80
2018-06-23T09:40:51.274Z,1022.75
2018-06-23T09:41:51.271Z,1022.76
2018-06-23T09:42:51.269Z,1022.79
2018-06-23T09:43:51.266Z,1022.81
2018-06-23T09:44:51.267Z,1022.79
2018-06-23T09:45:51.274Z,1022.80
2018-06-23T09:46:51.273Z,1022.82
2018-06-23T09:47:51.274Z,1022.78
2018-06-23T09:48:51.270Z,1022.78
2018-06-23T09:49:51.275Z,1022.88
2018-06-23T09:50:51.274Z,1022.85
2018-06-23T09:51:51.277Z,1022.83
2018-06-23T09:52:51.280Z,1022.85
2018-06-23T09:53:51.277Z,1022.82
2018-06-23T09:54:51.271Z,1022.84
2018-06-23T09:55:51.288Z,1022.90
2018-06-23T09:56:51.271Z,1022.90
2018-06-23T09:57:51.272Z,1022.85
2018-06-23T09:58:51.278Z,1022.91
2018-06-23T09:59:51.279Z,1022.90
2018-06-23T10:00:51.278Z,1022.84
2018-06-23T10:01:51.276Z,1022.86
2018-06-23T10:02:51.274Z,1022.83
2018-06-23T10:03:51.270Z,1022.79
2018-06-23T10:04:51.275Z,1022.85
2018-06-23T10:05:51.276Z,1022.92
2018-06-23T10:06:51.272Z,1022.87
2018-06-23T10:07:51.270Z,1022.83
2018-06-23T10:08:51.270Z,1022.94
2018-06-23T10:09:51.274Z,1022.96
2018-06-23T10:10:51.274Z,1022.89
2018-06-23T10:11:51.276Z,1022.93
2018-06-23T10:12:51.274Z,1023.00
2018-06-23T10:13:51.275Z,1022.87
2018-06-23T10:14:51.270Z,1022.94
2018-06-23T10:15:51.270Z,1022.90
2018-06-23T10:16:51.271Z,1022.95
2018-06-23T10:17:51.271Z,1022.88
2018-06-23T10:18:51.277Z,1022.97
2018-06-23T10:19:51.277Z,1023.03
2018-06-23T10:20:51.272Z,1023.02
2018-06-23T10:21:51.274Z,1023.02
2018-06-23T10:22:51.279Z,1023.05
2018-06-23T10:23:51.280Z,1023.04
2018-06-23T10:24:51.281Z,1023.11
2018-06-23T10:25:51.279Z,1023.02
2018-06-23T10:26:51.276Z,1023.07
2018-06-23T10:27:51.279Z,1023.07
2018-06-23T10:28:51.279Z,1023.00
2018-06-23T10:29:51.277Z,1023.07
2018-06-23T10:30:51.282Z,1023.05
2018-06-23T10:31:51.282Z,1022.97
2018-06-23T10:32:51.285Z,1022.97
2018-06-23T10:33:51.285Z,1023.03
2018-06-23T10:34:51.281Z,1023.04
2018-06-23T10:35:51.281Z,1023.03
2018-06-23T10:36:51.287Z,1022.99
2018-06-23T10:37:51.326Z,1023.01
2018-06-23T10:38:51.282Z,1022.98
2018-06-23T10:39:51.284Z,1023.02
2018-06-23T10:40:51.283Z,1023.09
2018-06-23T10:41:51.285Z,1023.11
2018-06-23T10:42:51.288Z,1023.08
2018-06-23T10:43:51.288Z,1023.09
2018-06-23T10:44:51.295Z,1023.06
2018-06-23T10:45:51.290Z,1023.14
2018-06-23T10:46:51.287Z,1023.15
2018-06-23T10:47:51.287Z,1023.20
2018-06-23T10:48:51.290Z,1023.17
2018-06-23T10:49:51.290Z,1023.17
2018-06-23T10:50:51.296Z,1023.18
2018-06-23T10:51:51.295Z,1023.14
2018-06-23T10:52:51.291Z,1023.19
2018-06-23T10:53:51.293Z,1023.13
2018-06-23T10:54:51.299Z,1023.13
2018-06-23T10:55:51.298Z,1023.13
2018-06-23T10:56:51.300Z,1023.16
2018-06-23T10:57:51.331Z,1023.05
2018-06-23T10:58:51.298Z,1023.07
2018-06-23T10:59:51.299Z,1023.06
2018-06-23T11:00:51.300Z,1023.04
2018-06-23T11:01:51.302Z,1023.07
2018-06-23T11:02:51.308Z,1022.99
2018-06-23T11:03:51.309Z,1023.04
2018-06-23T11:04:51.402Z,1023.01
2018-06-23T11:05:51.313Z,1023.04
2018-06-23T11:06:51.309Z,1023.01
2018-06-23T11:07:51.310Z,1023.03
2018-06-23T11:08:51.316Z,1023.02
2018-06-23T11:09:51.317Z,1023.01
2018-06-23T11:10:51.315Z,1023.05
2018-06-23T11:11:51.315Z,1023.02
2018-06-23T11:12:51.315Z,1023.04
2018-06-23T11:13:51.315Z,1023.04
2018-06-23T11:14:51.321Z,1023.08
2018-06-23T11:15:51.322Z,1023.11
2018-06-23T11:16:51.322Z,1023.02
2018-06-23T11:17:51.325Z,1023.02
2018-06-23T11:18:51.320Z,1023.06
2018-06-23T11:19:51.321Z,1023.06
2018-06-23T11:20:51.321Z,1023.08
2018-06-23T11:21:51.322Z,1023.05
2018-06-23T11:22:51.327Z,1023.12
2018-06-23T11:23:51.327Z,1023.09
2018-06-23T11:24:51.323Z,1023.10
2018-06-23T11:25:51.325Z,1023.06
2018-06-23T11:26:51.329Z,1023.10
2018-06-23T11:27:51.329Z,1023.08
2018-06-23T11:28:51.330Z,1023.05
2018-06-23T11:29:51.338Z,1023.10
2018-06-23T11:30:51.329Z,1023.09
2018-06-23T11:31:51.327Z,1023.08
2018-06-23T11:32:51.331Z,1023.11
2018-06-23T11:33:51.330Z,1023.07
2018-06-23T11:34:51.338Z,1023.05
2018-06-23T11:35:51.335Z,1023.09
2018-06-23T11:36:51.334Z,1023.07
2018-06-23T11:37:51.337Z,1023.07
2018-06-23T11:38:51.331Z,1023.08
2018-06-23T11:39:51.331Z,1023.11
2018-06-23T11:40:51.336Z,1023.13
2018-06-23T11:41:51.341Z,1023.15
2018-06-23T11:42:51.333Z,1023.10
2018-06-23T11:43:51.337Z,1023.12
2018-06-23T11:44:51.335Z,1023.13
2018-06-23T11:45:51.335Z,1023.08
2018-06-23T11:46:51.343Z,1023.13
2018-06-23T11:47:51.344Z,1023.14
2018-06-23T11:48:51.341Z,1023.09
2018-06-23T11:49:51.341Z,1023.15
2018-06-23T11:50:51.336Z,1023.11
2018-06-23T11:51:51.336Z,1023.11
2018-06-23T11:52:51.337Z,1023.14
2018-06-23T11:53:51.336Z,1023.12
2018-06-23T11:54:51.342Z,1023.11
2018-06-23T11:55:51.345Z,1023.16
2018-06-23T11:56:51.359Z,1023.19
2018-06-23T11:57:51.339Z,1023.19
2018-06-23T11:58:51.343Z,1023.23
2018-06-23T11:59:51.342Z,1023.19
2018-06-23T12:00:51.344Z,1023.21
2018-06-23T12:01:51.363Z,1023.18
2018-06-23T12:02:51.341Z,1023.20
2018-06-23T12:03:51.342Z,1023.08
2018-06-23T12:04:51.342Z,1023.15
2018-06-23T12:05:51.345Z,1023.14